createdAt,value
2022-11-24T00:01:36.165Z,97569.92
2022-11-24T00:06:58.512Z,97569.73
2022-11-24T00:12:20.227Z,97572.08
2022-11-24T00:17:42.029Z,97575.82
2022-11-24T00:23:04.588Z,97583.52
2022-11-24T00:28:26.818Z,97590.16
2022-11-24T00:33:50.551Z,97594.67
2022-11-24T00:39:14.244Z,97598.52
2022-11-24T00:44:36.020Z,97601.42
2022-11-24T00:49:57.845Z,97602.86
2022-11-24T00:55:19.875Z,97598.23
2022-11-24T01:00:41.906Z,97599.86
2022-11-24T01:06:05.442Z,97607.15
2022-11-24T01:11:54.966Z,97607.28
2022-11-24T01:17:16.997Z,97617.39
2022-11-24T01:22:39.432Z,97620.09
2022-11-24T01:28:01.456Z,97620.59
2022-11-24T01:33:23.084Z,97623.17
2022-11-24T01:38:45.018Z,97621.02
2022-11-24T01:44:41.064Z,97621.88
2022-11-24T01:50:03.760Z,97627.16
2022-11-24T01:55:29.797Z,97623.42
2022-11-24T02:00:52.372Z,97609.96
2022-11-24T02:06:17.556Z,97616.89
2022-11-24T02:11:40.090Z,97620.97
2022-11-24T02:17:01.871Z,97624.73
2022-11-24T02:22:29.568Z,97626.27
2022-11-24T02:27:54.212Z,97629.95
2022-11-24T02:33:16.894Z,97635.87
2022-11-24T02:38:38.920Z,97631.29
2022-11-24T02:44:01.853Z,97630.11
2022-11-24T02:49:24.687Z,97631.34
2022-11-24T02:54:46.716Z,97633.69
2022-11-24T03:00:09.749Z,97628.10
2022-11-24T03:05:31.680Z,97628.15
2022-11-24T03:10:54.713Z,97628.50
2022-11-24T03:16:16.796Z,97628.20
2022-11-24T03:21:38.871Z,97630.14
2022-11-24T03:27:01.101Z,97631.54
2022-11-24T03:32:23.036Z,97637.19
2022-11-24T03:37:45.076Z,97639.40
2022-11-24T03:43:07.098Z,97647.51
2022-11-24T03:48:29.020Z,97645.17
2022-11-24T03:53:50.749Z,97649.70
2022-11-24T03:59:12.677Z,97657.02
2022-11-24T04:04:34.993Z,97662.09
2022-11-24T04:09:57.042Z,97661.03
2022-11-24T04:15:20.183Z,97662.42
2022-11-24T04:20:42.836Z,97662.66
2022-11-24T04:26:04.633Z,97666.77
2022-11-24T04:31:26.409Z,97675.34
2022-11-24T04:36:48.694Z,97683.21
2022-11-24T04:42:11.028Z,97682.50
2022-11-24T04:47:33.555Z,97686.61
2022-11-24T04:52:55.586Z,97697.40
2022-11-24T04:58:17.716Z,97689.00
2022-11-24T05:03:40.448Z,97699.48
2022-11-24T05:09:02.193Z,97706.38
2022-11-24T05:14:24.234Z,97706.83
2022-11-24T05:19:46.090Z,97710.05
2022-11-24T05:25:08.738Z,97716.75
2022-11-24T05:30:34.007Z,97724.05
2022-11-24T05:36:01.314Z,97726.70
2022-11-24T05:41:23.586Z,97727.89
2022-11-24T05:46:45.457Z,97729.98
2022-11-24T05:52:07.444Z,97735.77
2022-11-24T05:57:29.373Z,97736.61
2022-11-24T06:02:51.263Z,97741.32
2022-11-24T06:08:13.658Z,97749.95
2022-11-24T06:13:35.929Z,97761.45
2022-11-24T06:18:58.195Z,97766.10
2022-11-24T06:24:20.332Z,97771.58
2022-11-24T06:29:42.851Z,97778.40
2022-11-24T06:35:06.590Z,97780.46
2022-11-24T06:40:28.521Z,97788.13
2022-11-24T06:45:53.604Z,97789.20
2022-11-24T06:51:15.390Z,97790.68
2022-11-24T06:56:37.620Z,97796.36
2022-11-24T07:01:59.613Z,97806.03
2022-11-24T07:07:21.661Z,97802.55
2022-11-24T07:12:43.709Z,97805.12
2022-11-24T07:18:05.539Z,97816.25
2022-11-24T07:23:27.569Z,97814.98
2022-11-24T07:28:49.454Z,97818.00
2022-11-24T07:34:11.629Z,97822.42
2022-11-24T07:39:33.779Z,97831.13
2022-11-24T07:44:55.690Z,97838.20
2022-11-24T07:50:17.820Z,97838.67
2022-11-24T07:55:39.490Z,97835.26
2022-11-24T08:01:15.801Z,97834.04
2022-11-24T08:06:42.073Z,97839.42
2022-11-24T08:12:07.814Z,97846.98
2022-11-24T08:17:29.861Z,97850.15
2022-11-24T08:22:51.981Z,97862.13
2022-11-24T08:28:14.030Z,97861.13
2022-11-24T08:33:36.647Z,97868.05
2022-11-24T08:38:59.801Z,97872.06
2022-11-24T08:44:21.779Z,97875.64
2022-11-24T08:49:43.635Z,97882.45
2022-11-24T08:55:05.937Z,97887.41
2022-11-24T09:00:27.739Z,97885.48
2022-11-24T09:05:52.546Z,97889.11
2022-11-24T09:11:17.333Z,97891.59
2022-11-24T09:16:39.325Z,97890.23
2022-11-24T09:22:01.239Z,97890.38
2022-11-24T09:27:23.375Z,97891.31
2022-11-24T09:32:45.000Z,97893.44
2022-11-24T09:38:06.869Z,97897.86
2022-11-24T09:43:40.101Z,97895.12
2022-11-24T09:49:03.682Z,97895.88
2022-11-24T09:54:28.850Z,97899.99
2022-11-24T09:59:51.095Z,97900.06
2022-11-24T10:05:13.287Z,97899.84
2022-11-24T10:10:44.686Z,97901.31
2022-11-24T10:16:38.483Z,97898.67
2022-11-24T10:22:09.429Z,97899.58
2022-11-24T10:27:46.063Z,97902.95
2022-11-24T10:33:15.896Z,97903.20
2022-11-24T10:38:52.922Z,97902.77
2022-11-24T10:44:15.713Z,97897.82
2022-11-24T10:49:37.959Z,97904.84
2022-11-24T10:55:01.983Z,97910.71
2022-11-24T11:00:30.910Z,97912.63
2022-11-24T11:06:01.379Z,97911.02
2022-11-24T11:11:44.681Z,97909.42
2022-11-24T11:17:33.412Z,97914.41
2022-11-24T11:22:56.394Z,97908.17
2022-11-24T11:28:18.779Z,97904.98
2022-11-24T11:39:24.182Z,97915.60
2022-11-24T11:44:56.808Z,97922.90
2022-11-24T11:50:47.462Z,97919.67
2022-11-24T11:56:23.286Z,97921.02
2022-11-24T12:02:10.149Z,97920.36
2022-11-24T12:07:53.554Z,97922.81
2022-11-24T12:13:39.983Z,97923.23
2022-11-24T12:19:02.065Z,97923.23
2022-11-24T12:24:54.513Z,97924.58
2022-11-24T12:30:18.283Z,97923.41
2022-11-24T12:35:44.065Z,97925.05
2022-11-24T12:41:43.464Z,97927.58
2022-11-24T12:47:08.116Z,97936.70
2022-11-24T12:52:40.461Z,97939.39
2022-11-24T12:58:30.928Z,97944.54
2022-11-24T13:04:02.116Z,97945.48
2022-11-24T13:09:23.864Z,97951.49
2022-11-24T13:14:47.237Z,97949.59
2022-11-24T13:20:21.574Z,97954.20
2022-11-24T13:26:16.303Z,97960.34
2022-11-24T13:31:38.503Z,97965.52
2022-11-24T13:37:32.103Z,97976.34
2022-11-24T13:42:54.692Z,97984.14
2022-11-24T13:48:19.814Z,97989.77
2022-11-24T13:53:47.808Z,97992.67
2022-11-24T13:59:26.652Z,97999.46
2022-11-24T14:04:48.890Z,98005.80
2022-11-24T14:10:20.119Z,98009.98
2022-11-24T14:15:41.952Z,98025.14
2022-11-24T14:21:24.007Z,98029.79
2022-11-24T14:26:46.671Z,98040.27
2022-11-24T14:32:16.129Z,98048.84
2022-11-24T14:37:38.219Z,98054.42
2022-11-24T14:42:59.745Z,98057.95
2022-11-24T14:48:33.617Z,98063.34
2022-11-24T14:53:59.226Z,98067.27
2022-11-24T14:59:23.131Z,98067.61
2022-11-24T15:05:04.974Z,98075.05
2022-11-24T15:10:36.972Z,98078.86
2022-11-24T15:16:03.371Z,98077.25
2022-11-24T15:21:33.596Z,98078.80
2022-11-24T15:27:00.495Z,98082.13
2022-11-24T15:32:22.107Z,98083.73
2022-11-24T15:37:44.604Z,98094.71
2022-11-24T15:43:17.746Z,98102.55
2022-11-24T15:48:39.780Z,98104.23
2022-11-24T15:54:01.839Z,98105.85
2022-11-24T15:59:23.871Z,98109.16
2022-11-24T16:04:45.972Z,98114.83
2022-11-24T16:10:18.021Z,98122.98
2022-11-24T16:15:40.002Z,98130.64
2022-11-24T16:21:01.823Z,98129.70
2022-11-24T16:26:23.944Z,98132.05
2022-11-24T16:31:47.309Z,98135.46
2022-11-24T16:37:10.030Z,98139.51
2022-11-24T16:42:32.821Z,98147.81
2022-11-24T16:47:55.343Z,98146.98
2022-11-24T16:53:17.707Z,98153.39
2022-11-24T16:58:40.882Z,98155.81
2022-11-24T17:04:02.609Z,98155.48
2022-11-24T17:09:24.559Z,98161.30
2022-11-24T17:15:03.375Z,98170.40
2022-11-24T17:20:28.639Z,98173.13
2022-11-24T17:25:50.962Z,98180.05
2022-11-24T17:31:24.187Z,98187.55
2022-11-24T17:36:46.344Z,98196.42
2022-11-24T17:42:08.688Z,98199.84
2022-11-24T17:47:30.818Z,98203.65
2022-11-24T17:52:53.453Z,98203.83
2022-11-24T17:58:15.278Z,98205.64
2022-11-24T18:03:39.309Z,98220.41
2022-11-24T18:09:00.993Z,98231.45
2022-11-24T18:14:23.072Z,98233.25
2022-11-24T18:19:45.745Z,98234.75
2022-11-24T18:25:08.176Z,98245.24
2022-11-24T18:30:30.069Z,98248.61
2022-11-24T18:36:02.081Z,98249.08
2022-11-24T18:41:23.879Z,98248.45
2022-11-24T18:46:45.845Z,98251.02
2022-11-24T18:52:07.812Z,98252.16
2022-11-24T18:57:31.525Z,98259.91
2022-11-24T19:02:53.831Z,98262.46
2022-11-24T19:08:15.992Z,98267.94
2022-11-24T19:13:37.766Z,98275.30
2022-11-24T19:19:02.003Z,98275.15
2022-11-24T19:24:23.910Z,98277.79
2022-11-24T19:29:47.772Z,98276.02
2022-11-24T19:35:09.682Z,98287.08
2022-11-24T19:40:31.664Z,98292.17
2022-11-24T19:45:53.700Z,98291.67
2022-11-24T19:51:21.165Z,98292.31
2022-11-24T19:56:43.078Z,98295.08
2022-11-24T20:02:04.953Z,98300.98
2022-11-24T20:07:27.105Z,98302.48
2022-11-24T20:12:48.841Z,98305.91
2022-11-24T20:18:10.764Z,98307.63
2022-11-24T20:23:33.061Z,98315.94
2022-11-24T20:28:56.355Z,98321.62
2022-11-24T20:34:19.015Z,98325.45
2022-11-24T20:39:40.677Z,98325.75
2022-11-24T20:45:02.414Z,98326.70
2022-11-24T20:50:24.500Z,98326.45
2022-11-24T20:55:46.239Z,98330.02
2022-11-24T21:01:09.319Z,98336.16
2022-11-24T21:06:31.708Z,98338.29
2022-11-24T21:11:54.800Z,98335.50
2022-11-24T21:17:16.653Z,98334.09
2022-11-24T21:22:40.255Z,98332.16
2022-11-24T21:28:02.341Z,98335.71
2022-11-24T21:33:24.936Z,98345.96
2022-11-24T21:38:57.119Z,98356.70
2022-11-24T21:44:19.238Z,98358.58
2022-11-24T21:49:41.143Z,98359.23
2022-11-24T21:55:03.163Z,98360.10
2022-11-24T22:00:24.968Z,98368.31
2022-11-24T22:05:56.915Z,98370.42
2022-11-24T22:11:24.436Z,98372.30
2022-11-24T22:16:46.575Z,98369.87
2022-11-24T22:22:08.623Z,98375.91
2022-11-24T22:27:30.855Z,98382.14
2022-11-24T22:32:53.294Z,98384.16
2022-11-24T22:38:15.122Z,98388.05
2022-11-24T22:43:38.252Z,98394.33
2022-11-24T22:49:01.633Z,98398.23
2022-11-24T22:54:23.483Z,98400.66
2022-11-24T22:59:45.409Z,98396.58
2022-11-24T23:05:08.480Z,98395.07
2022-11-24T23:10:30.402Z,98398.09
2022-11-24T23:15:52.335Z,98406.73
2022-11-24T23:21:19.477Z,98405.39
2022-11-24T23:26:41.891Z,98409.85
2022-11-24T23:32:04.180Z,98413.95
2022-11-24T23:37:39.425Z,98408.31
2022-11-24T23:43:08.171Z,98408.39
2022-11-24T23:48:30.064Z,98411.70
2022-11-24T23:53:52.933Z,98409.87
2022-11-24T23:59:14.662Z,98412.26
